Preble, New York
Current Conditions -  °F | °C
As of 11:15 AM on Wednesday 26 Nov 2014 (Local Time) from KN03 Reporting Station
Light Snow Light Snow  
Wind Chill: -3°   Ceiling: 2600
Heat Index:   Visibility: 3mi
Dew Point: -2°   Wind: 5mph
Humidity: 87%   Direction: 80°E
Pressure: 30.14"   Gusts: NA
Location:  42.74°N, 76.15°W
Report Text: KN03 261615Z AUTO 08004KT 3SM -SN SCT012 SCT018 OVC026 00/M02 A3014 RMK AO2
Loading
Personal Weather Stations






























Interactive Weather Map New forecast layout! Learn more

10-Day Weather Forecast

Advertisements
Track Severe Weather on mobile